»·PEaware :: N106AZ KSAD-KTUS

N106AZ :: KSAD-KTUS

FLIGHT INFORMATION

Flight Status: Arrived
Operator: Privately registered:
United States
More flights under this callsign
Pilot: Spencer F. (32151)
Aircraft: CESSNA 172 SKYHAWK
(C172)
More flights by this aircraft type
Origin: KSAD Safford Regl
United States
Destination: KTUS Tucson Intl
United States
More flights between these airports :: More routes between these airports
Route:
File this flight plan on PilotEdge
Remarks:
Altitude:
(Current/Filed)
6,500ft
Speed:
(Current/Filed)
124kts
Departed: 11-Jan-21 09:06 AM
Arrived: 11-Jan-21 10:12 AM
Distance/Time
Traveled:
79nm/1:06
Distance/Time
To Go:
Arrived

Flight Plot

Page will automatically refresh every two minutes.

Flight plan parsing failed; only flown route is shown


Map Options




Map Legend


Flown Route
Filed Route
Departure Airport
Arrival Airport
Navaid (VOR, NDB)
Fix

Horizontal Profiles

Position Reports

Time Latitude Longitude Heading Altitude Ground
Speed
11-Jan-21 09:04 32.986102 -109.926290 303 8472ft 142kts
11-Jan-21 09:05 33.006492 -109.967793 302 8466ft 141kts
11-Jan-21 09:06 32.851831 -109.636226 45 3167ft 0kts
11-Jan-21 09:07 32.851831 -109.636226 45 3167ft 0kts
11-Jan-21 09:08 32.851831 -109.636226 45 3167ft 0kts
11-Jan-21 09:09 32.851831 -109.636226 45 3167ft 0kts
11-Jan-21 09:10 32.851831 -109.636226 45 3167ft 0kts
11-Jan-21 09:11 32.852347 -109.636636 309 3168ft 10kts
11-Jan-21 09:12 32.852681 -109.642008 274 3157ft 19kts
11-Jan-21 09:13 32.854007 -109.640310 91 3164ft 49kts
11-Jan-21 09:14 32.855879 -109.617500 82 3876ft 67kts
11-Jan-21 09:15 32.872484 -109.628665 304 4442ft 103kts
11-Jan-21 09:16 32.889056 -109.656972 304 5217ft 101kts
11-Jan-21 09:17 32.903475 -109.684515 304 6020ft 89kts
11-Jan-21 09:18 32.915314 -109.708351 303 6774ft 73kts
11-Jan-21 09:19 32.922599 -109.729903 297 7307ft 71kts
11-Jan-21 09:20 32.932822 -109.751642 304 7815ft 76kts
11-Jan-21 09:21 32.943703 -109.774495 302 8351ft 79kts
11-Jan-21 09:22 32.958126 -109.803344 304 8486ft 125kts
11-Jan-21 09:23 32.978093 -109.841931 304 8474ft 138kts
11-Jan-21 09:25 32.998800 -109.881903 304 8472ft 140kts
11-Jan-21 09:26 33.019559 -109.922042 304 8472ft 140kts
11-Jan-21 09:27 33.040199 -109.962068 304 8471ft 139kts
11-Jan-21 09:28 33.060705 -110.001942 304 8471ft 139kts
11-Jan-21 09:29 33.080778 -110.042043 304 8471ft 138kts
11-Jan-21 09:30 33.100725 -110.082009 304 8472ft 138kts
11-Jan-21 09:31 33.120680 -110.122078 304 8473ft 138kts
11-Jan-21 09:32 33.140600 -110.162152 304 8473ft 138kts
11-Jan-21 09:33 33.160496 -110.202287 304 8473ft 138kts
11-Jan-21 09:34 33.180404 -110.242299 304 8474ft 138kts
11-Jan-21 09:35 33.171164 -110.283934 228 8473ft 142kts
11-Jan-21 09:36 33.145859 -110.321387 234 8473ft 143kts
11-Jan-21 09:37 33.122766 -110.360607 234 8473ft 142kts
11-Jan-21 09:38 33.099544 -110.400068 234 8473ft 143kts
11-Jan-21 09:38 33.080176 -110.432945 234 8473ft 143kts
11-Jan-21 09:40 33.053008 -110.479000 234 8474ft 143kts
11-Jan-21 09:41 33.029715 -110.518458 234 8475ft 143kts
11-Jan-21 09:42 33.006397 -110.557922 234 8473ft 143kts
11-Jan-21 09:42 32.986975 -110.590797 234 8473ft 143kts
11-Jan-21 09:43 32.963685 -110.630168 234 8475ft 143kts
11-Jan-21 09:45 32.936615 -110.675865 234 8472ft 143kts
11-Jan-21 09:46 32.913301 -110.715103 234 8474ft 142kts
11-Jan-21 09:46 32.893865 -110.747769 234 8471ft 143kts
11-Jan-21 09:47 32.870545 -110.786906 234 8472ft 142kts
11-Jan-21 09:48 32.847282 -110.825911 234 8471ft 142kts
11-Jan-21 09:49 32.823876 -110.864974 234 8471ft 142kts
11-Jan-21 09:50 32.800475 -110.903988 234 8462ft 143kts
11-Jan-21 09:51 32.777012 -110.943001 234 8233ft 139kts
11-Jan-21 09:52 32.753997 -110.980973 234 7575ft 135kts
11-Jan-21 09:53 32.723651 -111.004519 182 7538ft 140kts
11-Jan-21 09:54 32.684253 -111.009314 183 7551ft 141kts
11-Jan-21 09:55 32.644450 -111.014188 182 7524ft 141kts
11-Jan-21 09:56 32.604690 -111.018916 183 7535ft 141kts
11-Jan-21 09:57 32.564951 -111.023648 182 7520ft 141kts
11-Jan-21 09:58 32.525223 -111.028440 182 7531ft 141kts
11-Jan-21 09:59 32.485443 -111.033344 182 7520ft 141kts
11-Jan-21 10:00 32.445793 -111.038199 182 7509ft 141kts
11-Jan-21 10:01 32.405618 -111.043193 182 7498ft 144kts
11-Jan-21 10:02 32.365135 -111.048278 183 7487ft 142kts
11-Jan-21 10:03 32.324539 -111.053711 182 7476ft 144kts
11-Jan-21 10:04 32.285219 -111.059029 182 6855ft 130kts
11-Jan-21 10:05 32.249260 -111.060321 176 5856ft 135kts
11-Jan-21 10:06 32.210969 -111.056156 157 4852ft 136kts
11-Jan-21 10:07 32.186305 -111.026446 129 4358ft 136kts
11-Jan-21 10:08 32.164276 -110.999738 137 3832ft 89kts
11-Jan-21 10:09 32.145116 -110.976523 133 3300ft 107kts
11-Jan-21 10:10 32.126687 -110.954934 134 2709ft 85kts
11-Jan-21 10:11 32.114479 -110.940676 132 2600ft 22kts
11-Jan-21 10:12 32.113532 -110.937948 45 2605ft 0kts
11-Jan-21 10:13 32.114266 -110.937104 45 2607ft 15kts
11-Jan-21 10:14 32.117999 -110.939078 312 2599ft 23kts
11-Jan-21 10:15 32.123119 -110.945113 325 2579ft 25kts

Navigation Log

Ident Type
Flight plan parsing failed, navigation log unavailable